SACO/COR METAR and TAF weather

Enter ICAO airport designator
Station Type Date Time Source
SACO METAR 2021/07/26 15:00 UTC NOAA

SACO 261500Z 19011KT 140V210 CAVOK 14/M01 Q1021 NOSIG


Station Type Date Time Source
SACO Decoded METAR 2021/07/26 15:00 UTC NOAA

Cordoba Aerodrome, Argentina (SACO) 31-19S 064-13W 474M
Jul 26, 2021 - 11:00 AM EDT / 2021.07.26 1500 UTC
Wind: from the S (190 degrees) at 13 MPH (11 KT) (direction variable):0
Visibility: greater than 7 mile(s):0
Temperature: 57 F (14 C)
Dew Point: 30 F (-1 C)
Relative Humidity: 35%
Pressure (altimeter): 30.15 in. Hg (1021 hPa)
ob: SACO 261500Z 19011KT 140V210 CAVOK 14/M01 Q1021 NOSIG
cycle: 15

Station Type Date Time Source
SACO TAF 2021/07/26 12:09 UTC NOAA

TAF TAF SACO 261100Z 2612/2712 18015 KT 9999 BKN030 TX16/2618Z TNM02/2710Z
BECMG 2706/2709 20010KT SCT025 BKN040

Example: see airport list